createdAt,value
2022-12-22T00:01:05.410Z,35.77
2022-12-22T00:03:51.630Z,35.57
2022-12-22T00:06:37.167Z,36.03
2022-12-22T00:09:22.735Z,30.90
2022-12-22T00:12:09.909Z,31.53
2022-12-22T00:14:55.718Z,31.97
2022-12-22T00:17:46.765Z,28.80
2022-12-22T00:20:34.878Z,31.03
2022-12-22T00:23:20.307Z,29.43
2022-12-22T00:26:06.199Z,30.70
2022-12-22T00:28:54.710Z,33.80
2022-12-22T00:31:41.440Z,33.00
2022-12-22T00:34:33.164Z,33.53
2022-12-22T00:37:18.630Z,32.20
2022-12-22T00:40:04.152Z,38.30
2022-12-22T00:42:50.123Z,36.20
2022-12-22T00:45:37.283Z,38.17
2022-12-22T00:48:24.917Z,38.27
2022-12-22T00:51:10.388Z,35.27
2022-12-22T00:53:55.772Z,35.40
2022-12-22T00:56:41.619Z,33.50
2022-12-22T00:59:28.569Z,31.47
2022-12-22T01:02:15.766Z,31.73
2022-12-22T01:05:01.824Z,30.70
2022-12-22T01:07:48.851Z,31.00
2022-12-22T01:10:34.859Z,30.10
2022-12-22T01:13:20.640Z,31.23
2022-12-22T01:16:06.017Z,33.10
2022-12-22T01:18:53.193Z,32.97
2022-12-22T01:21:39.166Z,34.17
2022-12-22T01:24:32.379Z,30.70
2022-12-22T01:27:18.256Z,32.23
2022-12-22T01:30:03.690Z,32.97
2022-12-22T01:32:49.725Z,34.50
2022-12-22T01:35:39.350Z,34.17
2022-12-22T01:38:25.141Z,32.80
2022-12-22T01:41:12.696Z,33.43
2022-12-22T01:43:58.637Z,34.57
2022-12-22T01:46:47.026Z,34.97
2022-12-22T01:49:36.940Z,35.17
2022-12-22T01:52:26.235Z,36.47
2022-12-22T01:55:13.963Z,37.10
2022-12-22T01:57:59.245Z,36.53
2022-12-22T02:00:45.197Z,36.53
2022-12-22T02:03:35.368Z,37.43
2022-12-22T02:06:34.782Z,35.53
2022-12-22T02:09:35.863Z,36.47
2022-12-22T02:12:28.967Z,37.67
2022-12-22T02:15:22.718Z,35.80
2022-12-22T02:18:19.339Z,35.43
2022-12-22T02:21:11.743Z,36.03
2022-12-22T02:24:20.927Z,37.53
2022-12-22T02:27:10.008Z,36.40
2022-12-22T02:30:00.475Z,33.27
2022-12-22T02:32:46.131Z,37.03
2022-12-22T02:35:34.254Z,35.53
2022-12-22T02:38:29.957Z,34.50
2022-12-22T02:41:31.158Z,34.23
2022-12-22T02:44:36.768Z,33.17
2022-12-22T02:47:27.339Z,31.07
2022-12-22T02:50:16.289Z,34.43
2022-12-22T02:53:04.802Z,33.30
2022-12-22T02:55:51.365Z,34.60
2022-12-22T02:58:37.423Z,32.17
2022-12-22T03:01:25.815Z,32.50
2022-12-22T03:04:11.716Z,30.40
2022-12-22T03:06:57.131Z,30.43
2022-12-22T03:09:42.740Z,30.27
2022-12-22T03:12:28.097Z,29.93
2022-12-22T03:15:14.111Z,30.57
2022-12-22T03:18:01.235Z,33.00
2022-12-22T03:20:46.695Z,32.33
2022-12-22T03:23:32.269Z,34.93
2022-12-22T03:26:00.406Z,31.27
2022-12-22T03:28:30.032Z,31.47
2022-12-22T03:31:01.982Z,33.33
2022-12-22T03:33:32.525Z,32.37
2022-12-22T03:36:01.778Z,33.07
2022-12-22T03:38:30.123Z,34.57
2022-12-22T03:40:58.408Z,33.63
2022-12-22T03:43:44.292Z,34.20
2022-12-22T03:46:31.668Z,34.23
2022-12-22T03:49:11.384Z,35.97
2022-12-22T03:51:42.433Z,35.53
2022-12-22T03:54:12.671Z,37.13
2022-12-22T03:56:41.221Z,36.67
2022-12-22T03:59:09.836Z,37.63
2022-12-22T04:01:42.363Z,38.63
2022-12-22T04:04:13.165Z,35.27
2022-12-22T04:06:41.749Z,34.67
2022-12-22T04:09:10.130Z,35.10
2022-12-22T04:11:56.012Z,35.03
2022-12-22T04:14:29.825Z,42.53
2022-12-22T04:17:01.959Z,53.10
2022-12-22T04:19:31.718Z,45.77
2022-12-22T04:21:59.857Z,43.87
2022-12-22T04:24:28.104Z,38.00
2022-12-22T04:26:56.286Z,40.30
2022-12-22T04:29:24.406Z,36.10
2022-12-22T04:31:52.614Z,37.30
2022-12-22T04:34:20.733Z,45.23
2022-12-22T04:36:50.235Z,34.93
2022-12-22T04:39:18.410Z,34.43
2022-12-22T04:41:46.642Z,37.20
2022-12-22T04:44:14.782Z,33.00
2022-12-22T04:46:42.939Z,31.53
2022-12-22T04:49:11.097Z,29.63
2022-12-22T04:51:39.188Z,30.87
2022-12-22T04:54:08.720Z,30.83
2022-12-22T04:56:36.844Z,29.57
2022-12-22T04:59:04.980Z,28.87
2022-12-22T05:01:33.624Z,30.63
2022-12-22T05:04:01.917Z,30.87
2022-12-22T05:06:30.285Z,27.30
2022-12-22T05:08:58.594Z,24.73
2022-12-22T05:11:28.324Z,26.77
2022-12-22T05:13:59.733Z,27.50
2022-12-22T05:16:31.922Z,26.70
2022-12-22T05:19:02.929Z,26.93
2022-12-22T05:21:31.101Z,28.30
2022-12-22T05:24:00.174Z,29.37
2022-12-22T05:26:29.841Z,30.07
2022-12-22T05:28:58.025Z,28.87
2022-12-22T05:31:27.215Z,30.97
2022-12-22T05:33:55.569Z,31.23
2022-12-22T05:36:23.666Z,31.90
2022-12-22T05:38:52.505Z,32.93
2022-12-22T05:41:20.550Z,34.20
2022-12-22T05:43:50.096Z,35.53
2022-12-22T05:46:18.398Z,33.53
2022-12-22T05:48:46.561Z,33.13
2022-12-22T05:51:14.583Z,30.90
2022-12-22T05:53:43.175Z,27.27
2022-12-22T05:56:11.366Z,27.97
2022-12-22T05:58:40.414Z,29.73
2022-12-22T06:01:10.080Z,28.87
2022-12-22T06:03:38.515Z,31.33
2022-12-22T06:06:07.188Z,35.37
2022-12-22T06:08:35.277Z,31.83
2022-12-22T06:11:03.458Z,38.27
2022-12-22T06:13:31.762Z,38.97
2022-12-22T06:16:00.094Z,39.83
2022-12-22T06:18:29.724Z,35.80
2022-12-22T06:20:57.927Z,36.43
2022-12-22T06:23:26.099Z,34.67
2022-12-22T06:25:57.905Z,31.70
2022-12-22T06:28:26.509Z,32.13
2022-12-22T06:30:55.349Z,32.20
2022-12-22T06:33:23.490Z,30.87
2022-12-22T06:35:58.546Z,32.40
2022-12-22T06:38:28.360Z,31.27
2022-12-22T06:40:57.011Z,32.63
2022-12-22T06:43:24.578Z,32.77
2022-12-22T06:45:53.030Z,30.17
2022-12-22T06:48:21.412Z,31.33
2022-12-22T06:50:49.659Z,30.30
2022-12-22T06:53:19.247Z,31.63
2022-12-22T06:55:47.336Z,32.80
2022-12-22T06:58:15.503Z,31.70
2022-12-22T07:00:45.581Z,32.73
2022-12-22T07:03:13.992Z,31.80
2022-12-22T07:05:42.443Z,31.17
2022-12-22T07:08:10.591Z,28.93
2022-12-22T07:10:57.755Z,28.73
2022-12-22T07:13:28.430Z,28.80
2022-12-22T07:16:01.111Z,30.17
2022-12-22T07:18:31.662Z,27.03
2022-12-22T07:21:01.253Z,32.10
2022-12-22T07:23:30.038Z,33.83
2022-12-22T07:26:00.244Z,30.60
2022-12-22T07:28:28.658Z,30.03
2022-12-22T07:30:57.778Z,27.60
2022-12-22T07:33:25.987Z,25.57
2022-12-22T07:36:06.082Z,25.70
2022-12-22T07:38:39.226Z,27.93
2022-12-22T07:41:24.440Z,27.43
2022-12-22T07:43:52.817Z,25.33
2022-12-22T07:46:21.012Z,24.07
2022-12-22T07:49:06.709Z,24.43
2022-12-22T07:51:35.801Z,25.27
2022-12-22T07:54:06.742Z,26.87
2022-12-22T07:56:36.296Z,24.07
2022-12-22T07:59:04.910Z,27.37
2022-12-22T08:01:33.560Z,26.67
2022-12-22T08:04:01.692Z,28.20
2022-12-22T08:06:30.728Z,28.53
2022-12-22T08:08:58.785Z,27.77
2022-12-22T08:11:26.973Z,28.03
2022-12-22T08:14:01.337Z,27.80
2022-12-22T08:16:31.072Z,28.33
2022-12-22T08:18:59.317Z,25.47
2022-12-22T08:21:27.544Z,23.40
2022-12-22T08:23:55.747Z,27.23
2022-12-22T08:26:28.423Z,26.83
2022-12-22T08:29:03.801Z,26.47
2022-12-22T08:31:33.009Z,25.23
2022-12-22T08:34:04.345Z,25.13
2022-12-22T08:36:37.963Z,25.93
2022-12-22T08:39:06.416Z,23.40
2022-12-22T08:41:53.619Z,23.60
2022-12-22T08:44:25.304Z,24.00
2022-12-22T08:46:54.649Z,25.73
2022-12-22T08:49:23.680Z,25.50
2022-12-22T08:51:52.612Z,27.27
2022-12-22T08:54:21.521Z,28.23
2022-12-22T08:56:50.080Z,25.73
2022-12-22T08:59:18.631Z,25.03
2022-12-22T09:01:51.154Z,25.20
2022-12-22T09:04:21.573Z,24.60
2022-12-22T09:06:52.493Z,25.10
2022-12-22T09:09:21.560Z,22.80
2022-12-22T09:11:49.677Z,26.03
2022-12-22T09:14:18.409Z,31.80
2022-12-22T09:16:48.004Z,27.30
2022-12-22T09:19:16.131Z,29.03
2022-12-22T09:21:45.148Z,26.27
2022-12-22T09:24:14.979Z,27.10
2022-12-22T09:26:43.256Z,23.77
2022-12-22T09:29:11.451Z,24.63
2022-12-22T09:31:41.788Z,26.97
2022-12-22T09:34:17.168Z,28.17
2022-12-22T09:36:46.701Z,24.60
2022-12-22T09:39:15.987Z,27.77
2022-12-22T09:41:48.158Z,26.47
2022-12-22T09:44:23.981Z,25.33
2022-12-22T09:46:53.643Z,25.50
2022-12-22T09:49:23.930Z,25.67
2022-12-22T09:51:55.039Z,27.53
2022-12-22T09:54:23.938Z,28.57
2022-12-22T09:56:52.344Z,30.37
2022-12-22T09:59:22.975Z,28.70
2022-12-22T10:02:16.903Z,27.03
2022-12-22T10:04:58.694Z,26.70
2022-12-22T10:07:32.704Z,27.80
2022-12-22T10:10:07.092Z,26.60
2022-12-22T10:12:35.414Z,24.87
2022-12-22T10:15:03.502Z,23.73
2022-12-22T10:17:33.791Z,25.00
2022-12-22T10:20:21.930Z,26.77
2022-12-22T10:22:52.869Z,24.43
2022-12-22T10:25:52.257Z,24.53
2022-12-22T10:28:26.880Z,24.33
2022-12-22T10:31:16.268Z,23.87
2022-12-22T10:33:47.674Z,24.37
2022-12-22T10:36:23.487Z,26.17
2022-12-22T10:39:01.814Z,26.27
2022-12-22T10:41:33.692Z,23.37
2022-12-22T10:44:05.387Z,23.90
2022-12-22T10:46:38.801Z,25.50
2022-12-22T10:49:14.756Z,33.40
2022-12-22T10:51:47.986Z,36.27
2022-12-22T10:54:27.622Z,34.33
2022-12-22T10:57:04.499Z,27.23
2022-12-22T10:59:32.833Z,26.97
2022-12-22T11:02:24.897Z,28.60
2022-12-22T11:04:54.031Z,24.10
2022-12-22T11:07:24.487Z,25.07
2022-12-22T11:09:52.568Z,22.67
2022-12-22T11:12:28.975Z,22.07
2022-12-22T11:15:04.073Z,25.73
2022-12-22T11:17:40.560Z,22.03
2022-12-22T11:20:36.078Z,22.57
2022-12-22T11:23:11.448Z,18.77
2022-12-22T11:25:52.089Z,20.77
2022-12-22T11:28:37.317Z,18.67
2022-12-22T11:31:19.087Z,18.80
2022-12-22T11:34:01.054Z,19.60
2022-12-22T11:36:40.167Z,20.93
2022-12-22T11:39:15.935Z,18.73
2022-12-22T11:42:00.309Z,19.30
2022-12-22T11:44:42.346Z,18.97
2022-12-22T11:47:22.664Z,20.20
2022-12-22T11:51:00.383Z,20.63
2022-12-22T11:53:08.180Z,20.67
2022-12-22T11:55:40.748Z,20.70
2022-12-22T11:58:25.364Z,19.43
2022-12-22T12:01:22.351Z,20.37
2022-12-22T12:04:16.104Z,20.97
2022-12-22T12:07:10.709Z,23.13
2022-12-22T12:09:48.833Z,23.30
2022-12-22T12:12:26.467Z,21.77
2022-12-22T12:15:05.780Z,23.37
2022-12-22T12:17:50.535Z,21.43
2022-12-22T12:20:46.740Z,23.13
2022-12-22T12:23:36.158Z,23.83
2022-12-22T12:26:10.551Z,23.90
2022-12-22T12:28:52.432Z,25.93
2022-12-22T12:31:26.789Z,20.93
2022-12-22T12:34:00.186Z,22.97
2022-12-22T12:36:32.977Z,19.67
2022-12-22T12:39:10.856Z,19.70
2022-12-22T12:41:48.765Z,22.30
2022-12-22T12:44:20.476Z,19.80
2022-12-22T12:46:59.988Z,20.80
2022-12-22T12:49:57.240Z,21.07
2022-12-22T12:52:58.943Z,19.53
2022-12-22T12:55:33.212Z,21.93
2022-12-22T12:58:04.546Z,16.13
2022-12-22T13:00:50.840Z,18.30
2022-12-22T13:06:51.970Z,17.97
2022-12-22T13:09:49.072Z,17.87
2022-12-22T13:12:34.907Z,19.37
2022-12-22T13:15:03.377Z,22.13
2022-12-22T13:17:42.607Z,20.43
2022-12-22T13:20:16.909Z,19.10
2022-12-22T13:22:45.345Z,64.77
2022-12-22T13:25:17.361Z,22.97
2022-12-22T13:27:45.814Z,23.17
2022-12-22T13:30:18.099Z,23.33
2022-12-22T13:32:50.952Z,24.23
2022-12-22T13:35:32.575Z,21.60
2022-12-22T13:38:02.883Z,19.80
2022-12-22T13:40:33.173Z,20.90
2022-12-22T13:43:05.346Z,23.33
2022-12-22T13:45:37.936Z,23.30
2022-12-22T13:48:17.138Z,20.63
2022-12-22T13:50:49.770Z,21.00
2022-12-22T13:53:58.183Z,22.90
2022-12-22T13:56:17.543Z,20.43
2022-12-22T13:58:47.765Z,22.50
2022-12-22T14:01:21.143Z,21.63
2022-12-22T14:04:02.734Z,21.00
2022-12-22T14:06:33.875Z,43.13
2022-12-22T14:09:15.800Z,23.07
2022-12-22T14:11:52.057Z,21.73
2022-12-22T14:14:25.849Z,20.17
2022-12-22T14:16:57.151Z,20.80
2022-12-22T14:19:28.061Z,25.20
2022-12-22T14:22:05.972Z,21.43
2022-12-22T14:24:38.703Z,21.87
2022-12-22T14:27:08.107Z,22.07
2022-12-22T14:29:36.295Z,35.40
2022-12-22T14:32:04.886Z,29.90
2022-12-22T14:34:38.322Z,23.00
2022-12-22T14:37:06.504Z,41.70
2022-12-22T14:39:34.815Z,71.00
2022-12-22T14:42:05.262Z,71.87
2022-12-22T14:44:37.888Z,24.83
2022-12-22T14:47:18.575Z,55.53
2022-12-22T14:49:50.962Z,38.53
2022-12-22T14:52:27.320Z,24.60
2022-12-22T14:54:56.811Z,23.27
2022-12-22T14:57:33.918Z,20.47
2022-12-22T15:00:07.397Z,24.17
2022-12-22T15:02:40.011Z,25.20
2022-12-22T15:05:15.087Z,23.97
2022-12-22T15:08:06.850Z,27.23
2022-12-22T15:10:41.013Z,29.27
2022-12-22T15:13:14.957Z,30.97
2022-12-22T15:15:44.165Z,35.97
2022-12-22T15:18:15.182Z,36.10
2022-12-22T15:20:44.973Z,28.20
2022-12-22T15:23:17.256Z,46.50
2022-12-22T15:25:46.037Z,37.40
2022-12-22T15:28:14.361Z,40.03
2022-12-22T15:30:43.596Z,42.60
2022-12-22T15:33:14.971Z,38.33
2022-12-22T15:35:45.691Z,34.37
2022-12-22T15:38:15.892Z,29.83
2022-12-22T15:40:44.540Z,30.93
2022-12-22T15:43:44.650Z,23.27
2022-12-22T15:46:04.019Z,24.33
2022-12-22T15:48:34.310Z,25.83
2022-12-22T15:51:09.069Z,22.77
2022-12-22T15:53:38.413Z,26.40
2022-12-22T15:56:11.225Z,29.50
2022-12-22T15:58:43.777Z,43.13
2022-12-22T16:01:12.163Z,41.83
2022-12-22T16:03:40.466Z,47.80
2022-12-22T16:06:15.301Z,49.27
2022-12-22T16:08:47.237Z,51.87
2022-12-22T16:11:15.386Z,58.77
2022-12-22T16:13:43.609Z,60.03
2022-12-22T16:16:12.173Z,94.07
2022-12-22T16:18:40.305Z,80.20
2022-12-22T16:21:16.532Z,70.50
2022-12-22T16:23:47.703Z,68.70
2022-12-22T16:26:19.120Z,66.13
2022-12-22T16:28:47.549Z,67.07
2022-12-22T16:31:21.231Z,74.60
2022-12-22T16:33:49.993Z,74.43
2022-12-22T16:36:19.718Z,76.80
2022-12-22T16:38:48.735Z,70.63
2022-12-22T16:41:21.533Z,76.50
2022-12-22T16:43:51.040Z,72.53
2022-12-22T16:46:21.912Z,79.83
2022-12-22T16:48:53.124Z,79.97
2022-12-22T16:51:24.980Z,73.80
2022-12-22T16:53:53.706Z,74.43
2022-12-22T16:56:25.024Z,76.60
2022-12-22T16:58:53.380Z,70.87
2022-12-22T17:01:36.725Z,73.37
2022-12-22T17:04:09.420Z,67.03
2022-12-22T17:06:39.820Z,70.77
2022-12-22T17:09:13.794Z,73.10
2022-12-22T17:11:42.082Z,72.93
2022-12-22T17:14:29.901Z,67.93
2022-12-22T17:17:00.310Z,67.80
2022-12-22T17:19:28.827Z,65.87
2022-12-22T17:21:59.853Z,63.97
2022-12-22T17:24:29.217Z,65.07
2022-12-22T17:27:00.219Z,63.03
2022-12-22T17:29:28.502Z,50.70
2022-12-22T17:31:57.074Z,51.90
2022-12-22T17:34:25.689Z,55.30
2022-12-22T17:36:55.964Z,61.93
2022-12-22T17:39:26.406Z,54.87
2022-12-22T17:41:57.358Z,53.93
2022-12-22T17:44:28.119Z,50.27
2022-12-22T17:46:56.485Z,54.07
2022-12-22T17:49:24.899Z,53.00
2022-12-22T17:51:53.233Z,52.77
2022-12-22T17:54:25.523Z,55.20
2022-12-22T17:57:01.263Z,57.33
2022-12-22T17:59:29.751Z,61.00
2022-12-22T18:01:58.765Z,59.13
2022-12-22T18:04:27.163Z,60.87
2022-12-22T18:06:56.030Z,62.40
2022-12-22T18:09:27.017Z,60.97
2022-12-22T18:11:57.095Z,59.10
2022-12-22T18:14:25.492Z,57.23
2022-12-22T18:16:53.699Z,56.17
2022-12-22T18:19:22.025Z,50.17
2022-12-22T18:21:50.265Z,53.80
2022-12-22T18:24:23.015Z,58.20
2022-12-22T18:26:51.199Z,61.37
2022-12-22T18:29:22.469Z,69.53
2022-12-22T18:31:50.759Z,61.93
2022-12-22T18:34:18.881Z,61.50
2022-12-22T18:36:47.841Z,58.37
2022-12-22T18:39:19.307Z,57.17
2022-12-22T18:41:48.053Z,66.33
2022-12-22T18:44:17.563Z,57.80
2022-12-22T18:46:48.811Z,55.80
2022-12-22T18:49:17.676Z,52.20
2022-12-22T18:51:46.771Z,53.83
2022-12-22T18:54:23.562Z,44.87
2022-12-22T18:56:51.765Z,43.90
2022-12-22T18:59:24.910Z,48.53
2022-12-22T19:01:58.152Z,50.80
2022-12-22T19:04:26.401Z,60.50
2022-12-22T19:06:54.635Z,50.17
2022-12-22T19:09:26.975Z,48.07
2022-12-22T19:11:55.412Z,45.13
2022-12-22T19:14:23.958Z,45.63
2022-12-22T19:16:52.328Z,48.70
2022-12-22T19:19:22.702Z,47.80
2022-12-22T19:21:50.895Z,70.93
2022-12-22T19:24:19.084Z,53.90
2022-12-22T19:26:47.309Z,50.63
2022-12-22T19:29:18.288Z,47.57
2022-12-22T19:31:46.693Z,44.93
2022-12-22T19:34:20.074Z,43.40
2022-12-22T19:36:50.281Z,44.87
2022-12-22T19:39:18.733Z,44.50
2022-12-22T19:41:49.276Z,42.17
2022-12-22T19:44:20.976Z,44.20
2022-12-22T19:46:49.724Z,44.90
2022-12-22T19:49:19.296Z,43.50
2022-12-22T19:51:49.592Z,42.47
2022-12-22T19:54:19.618Z,45.60
2022-12-22T19:56:51.611Z,46.97
2022-12-22T19:59:29.594Z,46.00
2022-12-22T20:02:01.214Z,42.57
2022-12-22T20:04:30.025Z,44.57
2022-12-22T20:06:59.541Z,46.07
2022-12-22T20:09:27.874Z,50.00
2022-12-22T20:11:56.258Z,48.03
2022-12-22T20:14:24.447Z,49.43
2022-12-22T20:16:52.838Z,52.27
2022-12-22T20:19:21.106Z,49.63
2022-12-22T20:21:49.643Z,53.27
2022-12-22T20:24:23.968Z,55.17
2022-12-22T20:26:54.735Z,53.37
2022-12-22T20:29:26.045Z,53.83
2022-12-22T20:31:54.505Z,53.93
2022-12-22T20:34:23.037Z,53.70
2022-12-22T20:36:51.431Z,54.00
2022-12-22T20:39:20.701Z,54.87
2022-12-22T20:41:53.660Z,55.37
2022-12-22T20:44:23.079Z,51.63
2022-12-22T20:46:51.428Z,48.40
2022-12-22T20:49:19.679Z,48.70
2022-12-22T20:51:48.171Z,53.23
2022-12-22T20:54:17.289Z,54.10
2022-12-22T20:56:46.405Z,55.97
2022-12-22T20:59:18.240Z,56.10
2022-12-22T21:01:47.054Z,57.60
2022-12-22T21:04:16.575Z,57.33
2022-12-22T21:06:48.586Z,59.83
2022-12-22T21:09:17.315Z,57.57
2022-12-22T21:11:45.788Z,57.97
2022-12-22T21:14:17.631Z,58.20
2022-12-22T21:16:46.091Z,56.47
2022-12-22T21:19:19.957Z,55.23
2022-12-22T21:21:48.482Z,56.57
2022-12-22T21:24:16.709Z,55.77
2022-12-22T21:26:48.514Z,57.47
2022-12-22T21:29:20.837Z,58.03
2022-12-22T21:31:48.950Z,57.47
2022-12-22T21:34:17.086Z,57.47
2022-12-22T21:36:47.927Z,56.30
2022-12-22T21:39:25.803Z,56.67
2022-12-22T21:42:04.488Z,55.87
2022-12-22T21:44:36.523Z,58.83
2022-12-22T21:47:05.362Z,55.90
2022-12-22T21:49:34.716Z,60.00
2022-12-22T21:52:02.891Z,56.63
2022-12-22T21:54:31.142Z,56.80
2022-12-22T21:56:59.321Z,56.30
2022-12-22T21:59:27.595Z,52.53
2022-12-22T22:01:57.462Z,48.37
2022-12-22T22:04:26.123Z,53.33
2022-12-22T22:06:54.345Z,55.67
2022-12-22T22:09:22.574Z,50.17
2022-12-22T22:12:07.979Z,53.57
2022-12-22T22:14:36.340Z,51.27
2022-12-22T22:17:05.871Z,54.90
2022-12-22T22:19:34.230Z,52.90
2022-12-22T22:22:02.317Z,54.33
2022-12-22T22:24:32.003Z,53.17
2022-12-22T22:27:00.230Z,53.73
2022-12-22T22:29:28.323Z,48.40
2022-12-22T22:31:56.347Z,52.90
2022-12-22T22:34:26.017Z,52.37
2022-12-22T22:36:54.103Z,52.70
2022-12-22T22:39:23.228Z,53.17
2022-12-22T22:41:51.667Z,53.73
2022-12-22T22:44:20.093Z,55.63
2022-12-22T22:46:48.287Z,54.43
2022-12-22T22:49:16.665Z,54.53
2022-12-22T22:51:48.502Z,56.50
2022-12-22T22:54:16.737Z,53.60
2022-12-22T22:56:46.120Z,53.97
2022-12-22T22:59:15.424Z,52.60
2022-12-22T23:01:43.770Z,51.83
2022-12-22T23:04:12.203Z,49.90
2022-12-22T23:06:41.821Z,51.00
2022-12-22T23:09:11.626Z,52.33
2022-12-22T23:11:39.956Z,47.83
2022-12-22T23:14:08.311Z,47.40
2022-12-22T23:16:38.697Z,48.63
2022-12-22T23:19:07.204Z,49.13
2022-12-22T23:21:35.911Z,49.13
2022-12-22T23:24:04.091Z,50.70
2022-12-22T23:26:33.733Z,49.30
2022-12-22T23:29:03.841Z,50.50
2022-12-22T23:31:32.776Z,49.00
2022-12-22T23:34:01.478Z,48.93
2022-12-22T23:36:29.783Z,52.13
2022-12-22T23:38:58.123Z,51.63
2022-12-22T23:41:26.326Z,49.60
2022-12-22T23:43:56.015Z,51.50
2022-12-22T23:46:24.418Z,52.20
2022-12-22T23:48:53.503Z,50.07
2022-12-22T23:51:23.107Z,52.03
2022-12-22T23:53:51.185Z,52.20
2022-12-22T23:56:19.434Z,51.30
2022-12-22T23:58:52.532Z,50.60
